sensor_id;sensor_type;location;lat;lon;timestamp;pressure;altitude;pressure_sealevel;temperature;humidity
35151;BME280;55720;51.972;4.624;2023-01-29T00:01:53;102509.81;;;3.38;100.00
35151;BME280;55720;51.972;4.624;2023-01-29T00:04:19;102502.81;;;3.42;100.00
35151;BME280;55720;51.972;4.624;2023-01-29T00:06:44;102498.72;;;3.40;100.00
35151;BME280;55720;51.972;4.624;2023-01-29T00:09:11;102493.28;;;3.40;100.00
35151;BME280;55720;51.972;4.624;2023-01-29T00:11:37;102495.41;;;3.38;100.00
35151;BME280;55720;51.972;4.624;2023-01-29T00:14:02;102495.63;;;3.36;100.00
35151;BME280;55720;51.972;4.624;2023-01-29T00:16:28;102494.09;;;3.40;100.00
35151;BME280;55720;51.972;4.624;2023-01-29T00:18:53;102484.06;;;3.41;100.00
35151;BME280;55720;51.972;4.624;2023-01-29T00:21:20;102486.19;;;3.39;100.00
35151;BME280;55720;51.972;4.624;2023-01-29T00:23:46;102486.53;;;3.42;100.00
35151;BME280;55720;51.972;4.624;2023-01-29T00:26:12;102478.88;;;3.39;100.00
35151;BME280;55720;51.972;4.624;2023-01-29T00:28:38;102482.88;;;3.37;100.00
35151;BME280;55720;51.972;4.624;2023-01-29T00:31:11;102490.81;;;3.38;100.00
35151;BME280;55720;51.972;4.624;2023-01-29T00:33:37;102497.88;;;3.39;100.00
35151;BME280;55720;51.972;4.624;2023-01-29T00:36:03;102492.78;;;3.43;100.00
35151;BME280;55720;51.972;4.624;2023-01-29T00:38:29;102492.78;;;3.43;100.00
35151;BME280;55720;51.972;4.624;2023-01-29T00:40:54;102503.88;;;3.41;100.00
35151;BME280;55720;51.972;4.624;2023-01-29T00:43:38;102501.16;;;3.41;100.00
35151;BME280;55720;51.972;4.624;2023-01-29T00:46:22;102489.97;;;3.38;100.00
35151;BME280;55720;51.972;4.624;2023-01-29T00:48:47;102487.25;;;3.38;100.00
35151;BME280;55720;51.972;4.624;2023-01-29T00:51:13;102490.81;;;3.38;100.00
35151;BME280;55720;51.972;4.624;2023-01-29T00:53:38;102481.59;;;3.39;100.00
35151;BME280;55720;51.972;4.624;2023-01-29T00:56:04;102482.66;;;3.38;100.00
35151;BME280;55720;51.972;4.624;2023-01-29T00:58:29;102489.16;;;3.37;100.00
35151;BME280;55720;51.972;4.624;2023-01-29T01:01:00;102490.31;;;3.41;100.00
35151;BME280;55720;51.972;4.624;2023-01-29T01:03:25;102484.06;;;3.41;100.00
35151;BME280;55720;51.972;4.624;2023-01-29T01:06:04;102478.63;;;3.41;100.00
35151;BME280;55720;51.972;4.624;2023-01-29T01:08:30;102478.88;;;3.39;100.00
35151;BME280;55720;51.972;4.624;2023-01-29T01:11:16;102478.63;;;3.41;100.00
35151;BME280;55720;51.972;4.624;2023-01-29T01:13:41;102477.00;;;3.40;100.00
35151;BME280;55720;51.972;4.624;2023-01-29T01:16:13;102477.34;;;3.43;100.00
35151;BME280;55720;51.972;4.624;2023-01-29T01:18:38;102476.72;;;3.41;100.00
35151;BME280;55720;51.972;4.624;2023-01-29T01:21:04;102486.75;;;3.41;100.00
35151;BME280;55720;51.972;4.624;2023-01-29T01:23:29;102479.44;;;3.41;100.00
35151;BME280;55720;51.972;4.624;2023-01-29T01:25:55;102477.34;;;3.43;100.00
35151;BME280;55720;51.972;4.624;2023-01-29T01:28:20;102481.19;;;3.47;100.00
35151;BME280;55720;51.972;4.624;2023-01-29T01:30:46;102476.84;;;3.46;100.00
35151;BME280;55720;51.972;4.624;2023-01-29T01:33:11;102495.00;;;3.46;100.00
35151;BME280;55720;51.972;4.624;2023-01-29T01:35:38;102493.47;;;3.50;100.00
35151;BME280;55720;51.972;4.624;2023-01-29T01:38:03;102498.91;;;3.50;100.00
35151;BME280;55720;51.972;4.624;2023-01-29T01:40:29;102499.94;;;3.49;100.00
35151;BME280;55720;51.972;4.624;2023-01-29T01:42:57;102498.63;;;3.52;100.00
35151;BME280;55720;51.972;4.624;2023-01-29T01:45:34;102499.72;;;3.51;100.00
35151;BME280;55720;51.972;4.624;2023-01-29T01:48:20;102497.22;;;3.49;100.00
35151;BME280;55720;51.972;4.624;2023-01-29T01:50:51;102503.81;;;3.53;100.00
35151;BME280;55720;51.972;4.624;2023-01-29T01:53:22;102504.31;;;3.50;100.00
35151;BME280;55720;51.972;4.624;2023-01-29T01:56:01;102498.63;;;3.52;100.00
35151;BME280;55720;51.972;4.624;2023-01-29T01:58:36;102490.75;;;3.50;100.00
35151;BME280;55720;51.972;4.624;2023-01-29T02:01:05;102494.53;;;3.49;100.00
35151;BME280;55720;51.972;4.624;2023-01-29T02:03:35;102495.25;;;3.44;100.00
35151;BME280;55720;51.972;4.624;2023-01-29T02:06:23;102498.56;;;3.46;100.00
35151;BME280;55720;51.972;4.624;2023-01-29T02:09:16;102498.06;;;3.50;100.00
35151;BME280;55720;51.972;4.624;2023-01-29T02:11:57;102493.69;;;3.48;100.00
35151;BME280;55720;51.972;4.624;2023-01-29T02:14:23;102489.31;;;3.47;100.00
35151;BME280;55720;51.972;4.624;2023-01-29T02:16:49;102487.19;;;3.50;100.00
35151;BME280;55720;51.972;4.624;2023-01-29T02:19:46;102481.28;;;3.53;100.00
35151;BME280;55720;51.972;4.624;2023-01-29T02:25:46;102486.13;;;3.51;100.00
35151;BME280;55720;51.972;4.624;2023-01-29T02:28:37;102494.28;;;3.51;100.00
35151;BME280;55720;51.972;4.624;2023-01-29T02:31:07;102491.56;;;3.51;100.00
35151;BME280;55720;51.972;4.624;2023-01-29T02:33:47;102505.16;;;3.51;100.00
35151;BME280;55720;51.972;4.624;2023-01-29T02:41:37;102492.53;;;3.44;100.00
35151;BME280;55720;51.972;4.624;2023-01-29T02:44:36;102495.00;;;3.46;100.00
35151;BME280;55720;51.972;4.624;2023-01-29T02:47:22;102495.00;;;3.46;100.00
35151;BME280;55720;51.972;4.624;2023-01-29T02:52:27;102482.25;;;3.46;100.00
35151;BME280;55720;51.972;4.624;2023-01-29T02:58:10;102481.34;;;3.41;100.00
35151;BME280;55720;51.972;4.624;2023-01-29T03:00:41;102480.28;;;3.42;100.00
35151;BME280;55720;51.972;4.624;2023-01-29T03:03:22;102477.47;;;3.37;100.00
35151;BME280;55720;51.972;4.624;2023-01-29T03:06:14;102475.56;;;3.37;100.00
35151;BME280;55720;51.972;4.624;2023-01-29T03:09:13;102477.22;;;3.38;100.00
35151;BME280;55720;51.972;4.624;2023-01-29T03:11:44;102467.75;;;3.41;100.00
35151;BME280;55720;51.972;4.624;2023-01-29T03:14:21;102463.41;;;3.40;100.00
35151;BME280;55720;51.972;4.624;2023-01-29T03:16:52;102459.88;;;3.39;100.00
35151;BME280;55720;51.972;4.624;2023-01-29T03:19:40;102451.72;;;3.39;100.00
35151;BME280;55720;51.972;4.624;2023-01-29T03:22:07;102457.88;;;3.35;100.00
35151;BME280;55720;51.972;4.624;2023-01-29T03:24:46;102458.72;;;3.35;100.00
35151;BME280;55720;51.972;4.624;2023-01-29T03:27:35;102460.84;;;3.33;100.00
35151;BME280;55720;51.972;4.624;2023-01-29T03:30:24;102455.41;;;3.33;100.00
35151;BME280;55720;51.972;4.624;2023-01-29T03:33:11;102450.25;;;3.32;100.00
35151;BME280;55720;51.972;4.624;2023-01-29T03:35:43;102435.69;;;3.38;100.00
35151;BME280;55720;51.972;4.624;2023-01-29T03:38:12;102428.84;;;3.35;100.00
35151;BME280;55720;51.972;4.624;2023-01-29T03:40:46;102423.44;;;3.35;100.00
35151;BME280;55720;51.972;4.624;2023-01-29T03:52:34;102422.84;;;3.33;100.00
35151;BME280;55720;51.972;4.624;2023-01-29T03:55:14;102414.13;;;3.31;100.00
35151;BME280;55720;51.972;4.624;2023-01-29T04:00:22;102410.91;;;3.34;100.00
35151;BME280;55720;51.972;4.624;2023-01-29T04:03:12;102402.44;;;3.31;100.00
35151;BME280;55720;51.972;4.624;2023-01-29T04:05:49;102393.13;;;3.27;100.00
35151;BME280;55720;51.972;4.624;2023-01-29T04:08:21;102386.06;;;3.26;100.00
35151;BME280;55720;51.972;4.624;2023-01-29T04:10:50;102389.03;;;3.24;100.00
35151;BME280;55720;51.972;4.624;2023-01-29T04:13:19;102384.75;;;3.28;100.00
35151;BME280;55720;51.972;4.624;2023-01-29T04:15:49;102384.75;;;3.28;100.00
35151;BME280;55720;51.972;4.624;2023-01-29T04:18:15;102384.75;;;3.28;100.00
35151;BME280;55720;51.972;4.624;2023-01-29T04:20:40;102392.06;;;3.28;100.00
35151;BME280;55720;51.972;4.624;2023-01-29T04:23:22;102378.00;;;3.31;100.00
35151;BME280;55720;51.972;4.624;2023-01-29T04:26:13;102380.72;;;3.31;100.00
35151;BME280;55720;51.972;4.624;2023-01-29T04:29:02;102372.81;;;3.29;100.00
35151;BME280;55720;51.972;4.624;2023-01-29T04:31:40;102379.34;;;3.28;100.00
35151;BME280;55720;51.972;4.624;2023-01-29T04:34:18;102371.19;;;3.28;100.00
35151;BME280;55720;51.972;4.624;2023-01-29T04:39:35;102367.38;;;3.29;100.00
35151;BME280;55720;51.972;4.624;2023-01-29T04:42:17;102372.00;;;3.29;100.00
35151;BME280;55720;51.972;4.624;2023-01-29T04:45:15;102358.69;;;3.27;100.00
35151;BME280;55720;51.972;4.624;2023-01-29T04:55:39;102356.19;;;3.26;100.00
35151;BME280;55720;51.972;4.624;2023-01-29T04:58:11;102353.25;;;3.27;100.00
35151;BME280;55720;51.972;4.624;2023-01-29T05:00:43;102345.09;;;3.27;100.00
35151;BME280;55720;51.972;4.624;2023-01-29T05:03:12;102344.59;;;3.30;100.00
35151;BME280;55720;51.972;4.624;2023-01-29T05:05:44;102342.94;;;3.29;100.00
35151;BME280;55720;51.972;4.624;2023-01-29T05:08:12;102348.78;;;3.38;100.00
35151;BME280;55720;51.972;4.624;2023-01-29T05:10:38;102346.00;;;3.33;100.00
35151;BME280;55720;51.972;4.624;2023-01-29T05:13:05;102353.34;;;3.32;100.00
35151;BME280;55720;51.972;4.624;2023-01-29T05:15:38;102347.91;;;3.32;100.00
35151;BME280;55720;51.972;4.624;2023-01-29T05:18:05;102347.59;;;3.29;100.00
35151;BME280;55720;51.972;4.624;2023-01-29T05:20:34;102358.19;;;3.30;100.00
35151;BME280;55720;51.972;4.624;2023-01-29T05:23:00;102363.69;;;3.35;100.00
35151;BME280;55720;51.972;4.624;2023-01-29T05:25:28;102361.81;;;3.36;100.00
35151;BME280;55720;51.972;4.624;2023-01-29T05:27:55;102367.25;;;3.36;100.00
35151;BME280;55720;51.972;4.624;2023-01-29T05:30:34;102363.94;;;3.34;100.00
35151;BME280;55720;51.972;4.624;2023-01-29T05:33:00;102370.41;;;3.33;100.00
35151;BME280;55720;51.972;4.624;2023-01-29T05:35:27;102371.84;;;3.35;100.00
35151;BME280;55720;51.972;4.624;2023-01-29T05:37:54;102365.09;;;3.38;100.00
35151;BME280;55720;51.972;4.624;2023-01-29T05:40:20;102357.44;;;3.35;100.00
35151;BME280;55720;51.972;4.624;2023-01-29T05:42:45;102376.44;;;3.35;100.00
35151;BME280;55720;51.972;4.624;2023-01-29T05:45:10;102384.09;;;3.38;100.00
35151;BME280;55720;51.972;4.624;2023-01-29T05:47:36;102380.00;;;3.35;100.00
35151;BME280;55720;51.972;4.624;2023-01-29T05:50:01;102381.03;;;3.34;100.00
35151;BME280;55720;51.972;4.624;2023-01-29T05:52:27;102381.28;;;3.33;100.00
35151;BME280;55720;51.972;4.624;2023-01-29T05:54:52;102381.03;;;3.34;100.00
35151;BME280;55720;51.972;4.624;2023-01-29T05:57:17;102386.72;;;3.33;100.00
35151;BME280;55720;51.972;4.624;2023-01-29T05:59:43;102385.91;;;3.32;100.00
35151;BME280;55720;51.972;4.624;2023-01-29T06:02:08;102392.63;;;3.30;100.00
35151;BME280;55720;51.972;4.624;2023-01-29T06:04:33;102386.25;;;3.36;100.00
35151;BME280;55720;51.972;4.624;2023-01-29T06:06:59;102392.13;;;3.33;100.00
35151;BME280;55720;51.972;4.624;2023-01-29T06:09:27;102387.31;;;3.35;100.00
35151;BME280;55720;51.972;4.624;2023-01-29T06:11:53;102388.97;;;3.36;100.00
35151;BME280;55720;51.972;4.624;2023-01-29T06:14:18;102390.84;;;3.35;100.00
35151;BME280;55720;51.972;4.624;2023-01-29T06:16:43;102388.97;;;3.36;100.00
35151;BME280;55720;51.972;4.624;2023-01-29T06:19:09;102383.75;;;3.34;100.00
35151;BME280;55720;51.972;4.624;2023-01-29T06:21:34;102381.59;;;3.36;100.00
35151;BME280;55720;51.972;4.624;2023-01-29T06:24:00;102382.09;;;3.33;100.00
35151;BME280;55720;51.972;4.624;2023-01-29T06:26:25;102373.47;;;3.36;100.00
35151;BME280;55720;51.972;4.624;2023-01-29T06:28:50;102368.31;;;3.35;100.00
35151;BME280;55720;51.972;4.624;2023-01-29T06:31:16;102372.34;;;3.32;100.00
35151;BME280;55720;51.972;4.624;2023-01-29T06:33:42;102368.03;;;3.36;100.00
35151;BME280;55720;51.972;4.624;2023-01-29T06:36:08;102358.84;;;3.37;100.00
35151;BME280;55720;51.972;4.624;2023-01-29T06:38:33;102357.78;;;3.38;100.00
35151;BME280;55720;51.972;4.624;2023-01-29T06:40:59;102355.56;;;3.35;100.00
35151;BME280;55720;51.972;4.624;2023-01-29T06:43:24;102352.84;;;3.35;100.00
35151;BME280;55720;51.972;4.624;2023-01-29T06:45:52;102339.59;;;3.39;100.00
35151;BME280;55720;51.972;4.624;2023-01-29T06:48:19;102343.88;;;3.35;100.00
35151;BME280;55720;51.972;4.624;2023-01-29T06:50:45;102359.34;;;3.34;100.00
35151;BME280;55720;51.972;4.624;2023-01-29T06:53:10;102345.84;;;3.39;100.00
35151;BME280;55720;51.972;4.624;2023-01-29T06:55:36;102347.16;;;3.37;100.00
35151;BME280;55720;51.972;4.624;2023-01-29T06:58:09;102345.84;;;3.39;100.00
35151;BME280;55720;51.972;4.624;2023-01-29T07:00:35;102345.84;;;3.39;100.00
35151;BME280;55720;51.972;4.624;2023-01-29T07:03:00;102352.91;;;3.40;100.00
35151;BME280;55720;51.972;4.624;2023-01-29T07:05:26;102340.97;;;3.41;100.00
35151;BME280;55720;51.972;4.624;2023-01-29T07:07:51;102337.69;;;3.39;100.00
35151;BME280;55720;51.972;4.624;2023-01-29T07:10:17;102339.81;;;3.37;100.00
35151;BME280;55720;51.972;4.624;2023-01-29T07:12:42;102346.09;;;3.38;100.00
35151;BME280;55720;51.972;4.624;2023-01-29T07:15:08;102356.13;;;3.37;100.00
35151;BME280;55720;51.972;4.624;2023-01-29T07:17:34;102354.00;;;3.39;100.00
35151;BME280;55720;51.972;4.624;2023-01-29T07:20:00;102360.97;;;3.35;100.00
35151;BME280;55720;51.972;4.624;2023-01-29T07:22:25;102354.22;;;3.38;100.00
35151;BME280;55720;51.972;4.624;2023-01-29T07:24:50;102349.38;;;3.40;100.00
35151;BME280;55720;51.972;4.624;2023-01-29T07:27:16;102345.03;;;3.39;100.00
35151;BME280;55720;51.972;4.624;2023-01-29T07:29:41;102349.63;;;3.38;100.00
35151;BME280;55720;51.972;4.624;2023-01-29T07:32:07;102353.50;;;3.42;100.00
35151;BME280;55720;51.972;4.624;2023-01-29T07:34:32;102355.94;;;3.44;100.00
35151;BME280;55720;51.972;4.624;2023-01-29T07:36:57;102350.19;;;3.40;100.00
35151;BME280;55720;51.972;4.624;2023-01-29T07:39:23;102347.78;;;3.44;100.00
35151;BME280;55720;51.972;4.624;2023-01-29T07:41:49;102346.19;;;3.43;100.00
35151;BME280;55720;51.972;4.624;2023-01-29T07:44:14;102355.38;;;3.42;100.00
35151;BME280;55720;51.972;4.624;2023-01-29T07:46:40;102361.38;;;3.44;100.00
35151;BME280;55720;51.972;4.624;2023-01-29T07:49:05;102353.81;;;3.46;100.00
35151;BME280;55720;51.972;4.624;2023-01-29T07:51:30;102351.09;;;3.46;100.00
35151;BME280;55720;51.972;4.624;2023-01-29T07:53:56;102345.41;;;3.47;100.00
35151;BME280;55720;51.972;4.624;2023-01-29T07:56:21;102338.91;;;3.48;100.00
35151;BME280;55720;51.972;4.624;2023-01-29T07:58:46;102346.72;;;3.45;100.00
35151;BME280;55720;51.972;4.624;2023-01-29T08:01:12;102341.06;;;3.46;100.00
35151;BME280;55720;51.972;4.624;2023-01-29T08:03:37;102342.63;;;3.42;100.00
35151;BME280;55720;51.972;4.624;2023-01-29T08:06:03;102341.56;;;3.43;100.00
35151;BME280;55720;51.972;4.624;2023-01-29T08:08:28;102346.72;;;3.45;100.00
35151;BME280;55720;51.972;4.624;2023-01-29T08:10:54;102341.56;;;3.43;100.00
35151;BME280;55720;51.972;4.624;2023-01-29T08:13:19;102338.91;;;3.48;100.00
35151;BME280;55720;51.972;4.624;2023-01-29T08:15:45;102337.84;;;3.50;100.00
35151;BME280;55720;51.972;4.624;2023-01-29T08:18:11;102329.13;;;3.47;100.00
35151;BME280;55720;51.972;4.624;2023-01-29T08:20:37;102338.41;;;3.52;100.00
35151;BME280;55720;51.972;4.624;2023-01-29T08:23:05;102333.31;;;3.55;100.00
35151;BME280;55720;51.972;4.624;2023-01-29T08:25:31;102326.72;;;3.51;100.00
35151;BME280;55720;51.972;4.624;2023-01-29T08:27:58;102323.03;;;3.57;100.00
35151;BME280;55720;51.972;4.624;2023-01-29T08:30:29;102320.31;;;3.57;100.00
35151;BME280;55720;51.972;4.624;2023-01-29T08:32:54;102315.38;;;3.54;100.00
35151;BME280;55720;51.972;4.624;2023-01-29T08:35:20;102316.44;;;3.53;100.00
35151;BME280;55720;51.972;4.624;2023-01-29T08:37:59;102322.03;;;3.63;100.00
35151;BME280;55720;51.972;4.624;2023-01-29T08:40:29;102320.13;;;3.64;100.00
35151;BME280;55720;51.972;4.624;2023-01-29T08:43:06;102322.28;;;3.62;100.00
35151;BME280;55720;51.972;4.624;2023-01-29T08:45:33;102315.56;;;3.69;100.00
35151;BME280;55720;51.972;4.624;2023-01-29T08:47:59;102313.38;;;3.66;100.00
35151;BME280;55720;51.972;4.624;2023-01-29T08:50:24;102313.13;;;3.68;100.00
35151;BME280;55720;51.972;4.624;2023-01-29T08:52:50;102312.06;;;3.69;100.00
35151;BME280;55720;51.972;4.624;2023-01-29T08:55:15;102305.13;;;3.78;100.00
35151;BME280;55720;51.972;4.624;2023-01-29T08:57:40;102311.88;;;3.75;100.00
35151;BME280;55720;51.972;4.624;2023-01-29T09:00:07;102308.22;;;3.86;100.00
35151;BME280;55720;51.972;4.624;2023-01-29T09:02:34;102313.91;;;3.85;100.00
35151;BME280;55720;51.972;4.624;2023-01-29T09:04:59;102318.94;;;3.98;100.00
35151;BME280;55720;51.972;4.624;2023-01-29T09:07:25;102312.66;;;3.92;100.00
35151;BME280;55720;51.972;4.624;2023-01-29T09:09:50;102317.56;;;3.95;100.00
35151;BME280;55720;51.972;4.624;2023-01-29T09:12:15;102317.25;;;3.92;100.00
35151;BME280;55720;51.972;4.624;2023-01-29T09:14:41;102311.50;;;4.10;100.00
35151;BME280;55720;51.972;4.624;2023-01-29T09:17:06;102326.63;;;4.01;100.00
35151;BME280;55720;51.972;4.624;2023-01-29T09:19:32;102324.06;;;4.16;100.00
35151;BME280;55720;51.972;4.624;2023-01-29T09:21:57;102335.03;;;4.21;100.00
35151;BME280;55720;51.972;4.624;2023-01-29T09:24:22;102337.09;;;4.14;100.00
35151;BME280;55720;51.972;4.624;2023-01-29T09:26:49;102333.69;;;4.24;100.00
35151;BME280;55720;51.972;4.624;2023-01-29T09:29:14;102334.91;;;4.33;100.00
35151;BME280;55720;51.972;4.624;2023-01-29T09:31:39;102336.84;;;4.37;100.00
35151;BME280;55720;51.972;4.624;2023-01-29T09:34:05;102333.00;;;4.33;100.00
35151;BME280;55720;51.972;4.624;2023-01-29T09:36:30;102342.44;;;4.26;100.00
35151;BME280;55720;51.972;4.624;2023-01-29T09:38:55;102345.91;;;4.21;100.00
35151;BME280;55720;51.972;4.624;2023-01-29T09:41:55;102344.88;;;4.27;100.00
35151;BME280;55720;51.972;4.624;2023-01-29T09:45:30;102348.81;;;4.36;100.00
35151;BME280;55720;51.972;4.624;2023-01-29T09:47:26;102340.66;;;4.36;100.00
35151;BME280;55720;51.972;4.624;2023-01-29T09:49:57;102353.63;;;4.29;100.00
35151;BME280;55720;51.972;4.624;2023-01-29T09:52:27;102353.66;;;4.34;100.00
35151;BME280;55720;51.972;4.624;2023-01-29T09:57:37;102351.66;;;4.25;100.00
35151;BME280;55720;51.972;4.624;2023-01-29T10:00:12;102348.19;;;4.29;100.00
35151;BME280;55720;51.972;4.624;2023-01-29T10:02:50;102340.78;;;4.25;100.00
35151;BME280;55720;51.972;4.624;2023-01-29T10:05:47;102333.16;;;4.27;100.00
35151;BME280;55720;51.972;4.624;2023-01-29T10:13:43;102338.13;;;4.30;100.00
35151;BME280;55720;51.972;4.624;2023-01-29T10:22:08;102332.03;;;4.44;100.00
35151;BME280;55720;51.972;4.624;2023-01-29T10:24:51;102323.69;;;4.51;100.00
35151;BME280;55720;51.972;4.624;2023-01-29T10:27:18;102332.06;;;4.50;100.00
35151;BME280;55720;51.972;4.624;2023-01-29T10:29:46;102328.81;;;4.47;100.00
35151;BME280;55720;51.972;4.624;2023-01-29T10:32:21;102335.06;;;4.48;100.00
35151;BME280;55720;51.972;4.624;2023-01-29T10:34:53;102324.50;;;4.52;100.00
35151;BME280;55720;51.972;4.624;2023-01-29T10:37:33;102329.31;;;4.44;100.00
35151;BME280;55720;51.972;4.624;2023-01-29T10:43:34;102326.72;;;4.55;100.00
35151;BME280;55720;51.972;4.624;2023-01-29T10:49:05;102321.81;;;4.57;100.00
35151;BME280;55720;51.972;4.624;2023-01-29T11:00:11;102289.78;;;4.64;100.00
35151;BME280;55720;51.972;4.624;2023-01-29T11:02:46;102285.44;;;4.63;100.00
35151;BME280;55720;51.972;4.624;2023-01-29T11:05:33;102292.09;;;4.50;100.00
35151;BME280;55720;51.972;4.624;2023-01-29T11:08:09;102276.16;;;4.59;100.00
35151;BME280;55720;51.972;4.624;2023-01-29T11:10:44;102272.03;;;4.56;100.00
35151;BME280;55720;51.972;4.624;2023-01-29T11:13:15;102278.66;;;4.65;100.00
35151;BME280;55720;51.972;4.624;2023-01-29T11:15:41;102275.38;;;4.63;100.00
35151;BME280;55720;51.972;4.624;2023-01-29T11:18:11;102278.66;;;4.65;100.00
35151;BME280;55720;51.972;4.624;2023-01-29T11:20:41;102269.44;;;4.66;100.00
35151;BME280;55720;51.972;4.624;2023-01-29T11:23:28;102265.09;;;4.70;100.00
35151;BME280;55720;51.972;4.624;2023-01-29T11:25:55;102273.78;;;4.67;100.00
35151;BME280;55720;51.972;4.624;2023-01-29T11:31:14;102265.81;;;4.61;100.00
35151;BME280;55720;51.972;4.624;2023-01-29T11:33:40;102259.03;;;4.63;100.00
35151;BME280;55720;51.972;4.624;2023-01-29T11:36:35;102269.16;;;4.68;100.00
35151;BME280;55720;51.972;4.624;2023-01-29T11:39:22;102264.59;;;4.73;100.00
35151;BME280;55720;51.972;4.624;2023-01-29T11:41:52;102252.88;;;4.73;100.00
35151;BME280;55720;51.972;4.624;2023-01-29T11:47:21;102247.00;;;4.86;100.00
35151;BME280;55720;51.972;4.624;2023-01-29T11:49:52;102239.97;;;4.90;100.00
35151;BME280;55720;51.972;4.624;2023-01-29T11:52:39;102244.06;;;4.92;100.00
35151;BME280;55720;51.972;4.624;2023-01-29T11:55:17;102237.84;;;4.97;100.00
35151;BME280;55720;51.972;4.624;2023-01-29T11:57:47;102224.19;;;4.92;100.00
35151;BME280;55720;51.972;4.624;2023-01-29T12:00:27;102226.34;;;4.90;100.00
35151;BME280;55720;51.972;4.624;2023-01-29T12:05:27;102220.25;;;4.78;100.00
35151;BME280;55720;51.972;4.624;2023-01-29T12:07:54;102216.22;;;4.80;100.00
35151;BME280;55720;51.972;4.624;2023-01-29T12:10:39;102210.25;;;4.83;100.00
35151;BME280;55720;51.972;4.624;2023-01-29T12:15:34;102203.28;;;4.97;100.00
35151;BME280;55720;51.972;4.624;2023-01-29T12:18:05;102194.88;;;5.04;100.00
35151;BME280;55720;51.972;4.624;2023-01-29T12:20:40;102197.59;;;4.99;100.00
35151;BME280;55720;51.972;4.624;2023-01-29T12:26:00;102188.34;;;5.05;100.00
35151;BME280;55720;51.972;4.624;2023-01-29T12:28:53;102180.78;;;5.12;100.00
35151;BME280;55720;51.972;4.624;2023-01-29T12:31:35;102176.16;;;5.13;100.00
35151;BME280;55720;51.972;4.624;2023-01-29T12:34:18;102165.84;;;5.20;100.00
35151;BME280;55720;51.972;4.624;2023-01-29T12:39:39;102150.97;;;5.37;100.00
35151;BME280;55720;51.972;4.624;2023-01-29T12:42:12;102147.75;;;5.56;100.00
35151;BME280;55720;51.972;4.624;2023-01-29T12:44:52;102143.97;;;5.57;100.00
35151;BME280;55720;51.972;4.624;2023-01-29T12:47:37;102139.06;;;5.69;100.00
35151;BME280;55720;51.972;4.624;2023-01-29T12:50:09;102149.50;;;5.87;100.00
35151;BME280;55720;51.972;4.624;2023-01-29T12:52:52;102169.06;;;5.79;100.00
35151;BME280;55720;51.972;4.624;2023-01-29T12:55:21;102179.47;;;5.82;100.00
35151;BME280;55720;51.972;4.624;2023-01-29T12:57:57;102187.88;;;5.75;100.00
35151;BME280;55720;51.972;4.624;2023-01-29T13:00:31;102180.50;;;5.66;100.00
35151;BME280;55720;51.972;4.624;2023-01-29T13:05:49;102173.34;;;5.50;100.00
35151;BME280;55720;51.972;4.624;2023-01-29T13:11:07;102161.31;;;5.40;100.00
35151;BME280;55720;51.972;4.624;2023-01-29T13:16:02;102143.50;;;5.18;100.00
35151;BME280;55720;51.972;4.624;2023-01-29T13:20:54;102124.00;;;5.41;100.00
35151;BME280;55720;51.972;4.624;2023-01-29T13:23:22;102115.03;;;5.45;100.00
35151;BME280;55720;51.972;4.624;2023-01-29T13:25:53;102117.22;;;5.49;100.00
35151;BME280;55720;51.972;4.624;2023-01-29T13:28:26;102114.00;;;5.57;100.00
35151;BME280;55720;51.972;4.624;2023-01-29T13:31:12;102114.25;;;5.55;100.00
35151;BME280;55720;51.972;4.624;2023-01-29T13:33:40;102100.34;;;5.52;100.00
35151;BME280;55720;51.972;4.624;2023-01-29T13:36:14;102091.38;;;5.56;100.00
35151;BME280;55720;51.972;4.624;2023-01-29T13:38:42;102099.88;;;5.80;100.00
35151;BME280;55720;51.972;4.624;2023-01-29T13:41:09;102097.47;;;5.88;100.00
35151;BME280;55720;51.972;4.624;2023-01-29T13:43:40;102099.03;;;5.79;100.00
35151;BME280;55720;51.972;4.624;2023-01-29T13:46:17;102103.94;;;5.72;100.00
35151;BME280;55720;51.972;4.624;2023-01-29T13:48:47;102096.13;;;5.86;100.00
35151;BME280;55720;51.972;4.624;2023-01-29T13:51:19;102105.63;;;5.93;100.00
35151;BME280;55720;51.972;4.624;2023-01-29T13:54:08;102093.94;;;5.93;100.00
35151;BME280;55720;51.972;4.624;2023-01-29T13:56:55;102103.19;;;5.92;100.00
35151;BME280;55720;51.972;4.624;2023-01-29T13:59:48;102114.03;;;5.77;100.00
35151;BME280;55720;51.972;4.624;2023-01-29T14:02:24;102094.75;;;5.88;100.00
35151;BME280;55720;51.972;4.624;2023-01-29T14:04:51;102086.00;;;5.86;100.00
35151;BME280;55720;51.972;4.624;2023-01-29T14:10:18;102093.03;;;5.82;100.00
35151;BME280;55720;51.972;4.624;2023-01-29T14:12:44;102077.59;;;5.93;100.00
35151;BME280;55720;51.972;4.624;2023-01-29T14:23:39;102063.41;;;5.86;100.00
35151;BME280;55720;51.972;4.624;2023-01-29T14:26:20;102048.63;;;5.72;100.00
35151;BME280;55720;51.972;4.624;2023-01-29T14:28:59;102052.44;;;5.71;100.00
35151;BME280;55720;51.972;4.624;2023-01-29T14:31:40;102035.25;;;5.55;100.00
35151;BME280;55720;51.972;4.624;2023-01-29T14:34:15;102027.59;;;5.47;100.00
35151;BME280;55720;51.972;4.624;2023-01-29T14:36:44;102018.88;;;5.50;100.00
35151;BME280;55720;51.972;4.624;2023-01-29T14:39:22;102016.97;;;5.51;100.00
35151;BME280;55720;51.972;4.624;2023-01-29T14:41:50;101997.63;;;5.37;100.00
35151;BME280;55720;51.972;4.624;2023-01-29T14:50:01;101979.91;;;5.24;100.00
35151;BME280;55720;51.972;4.624;2023-01-29T14:52:39;101972.81;;;5.23;100.00
35151;BME280;55720;51.972;4.624;2023-01-29T14:55:26;101956.47;;;5.23;100.00
35151;BME280;55720;51.972;4.624;2023-01-29T14:57:55;101953.47;;;5.20;100.00
35151;BME280;55720;51.972;4.624;2023-01-29T15:00:26;101942.03;;;5.18;100.00
35151;BME280;55720;51.972;4.624;2023-01-29T15:02:52;101929.25;;;5.13;100.00